Time;durP1;ratioP1;P1;durP2;ratioP2;P2;SDS_P1;SDS_P2;PMS_P1;PMS_P2;Temp;Humidity;BMP_temperature;BMP_pressure;BME280_temperature;BME280_humidity;BME280_pressure;Samples;Min_cycle;Max_cycle;Signal;HPM_P1;HPM_P2
2023/07/28 00:01:54;;;;;;;6.40;2.15;;;;;;;;;;5062534;28;19924;-74
2023/07/28 00:04:24;;;;;;;5.00;2.58;;;;;;;;;;5061777;28;20049;-73
2023/07/28 00:06:55;;;;;;;3.10;2.20;;;;;;;;;;5061845;28;20067;-73
2023/07/28 00:09:26;;;;;;;5.40;1.80;;;;;;;;;;5060922;28;20515;-72
2023/07/28 00:12:01;;;;;;;3.17;1.60;;;;;;;;;;5062515;28;20044;-73
2023/07/28 00:14:32;;;;;;;1.45;1.20;;;;;;;;;;5061715;28;20403;-72
2023/07/28 00:17:02;;;;;;;2.50;1.30;;;;;;;;;;5061524;28;20067;-73
2023/07/28 00:19:33;;;;;;;2.35;1.35;;;;;;;;;;5061971;28;20060;-73
2023/07/28 00:22:03;;;;;;;;;;;;;;;;;;5062353;28;20048;-74
2023/07/28 00:24:35;;;;;;;10.88;1.30;;;;;;;;;;5060821;28;19920;-73
2023/07/28 00:27:06;;;;;;;1.30;1.05;;;;;;;;;;5061457;28;20050;-73
2023/07/28 00:29:36;;;;;;;4.97;1.30;;;;;;;;;;5065737;28;20044;-74
2023/07/28 00:32:07;;;;;;;8.50;1.13;;;;;;;;;;5065964;28;20067;-74
2023/07/28 00:34:38;;;;;;;8.13;1.13;;;;;;;;;;5063968;28;20427;-73
2023/07/28 00:37:09;;;;;;;6.03;1.30;;;;;;;;;;5063899;28;20404;-73
2023/07/28 00:39:41;;;;;;;1.45;1.15;;;;;;;;;;5065584;28;20069;-74
2023/07/28 00:42:11;;;;;;;3.28;1.23;;;;;;;;;;5065532;28;20044;-77
2023/07/28 00:44:42;;;;;;;3.55;1.25;;;;;;;;;;5064336;28;20400;-73
2023/07/28 00:47:14;;;;;;;1.48;1.02;;;;;;;;;;5064286;28;20079;-73
2023/07/28 00:49:45;;;;;;;4.05;1.27;;;;;;;;;;5065485;28;20060;-72
2023/07/28 00:52:15;;;;;;;5.57;1.25;;;;;;;;;;5064541;28;20060;-72
2023/07/28 00:54:46;;;;;;;2.47;1.15;;;;;;;;;;5065101;28;20056;-72
2023/07/28 00:57:18;;;;;;;1.73;1.35;;;;;;;;;;5063323;28;20080;-73
2023/07/28 00:59:49;;;;;;;2.10;1.40;;;;;;;;;;5063502;28;20063;-73
2023/07/28 01:02:21;;;;;;;3.00;1.05;;;;;;;;;;5064385;28;20394;-73
2023/07/28 01:04:53;;;;;;;1.25;1.15;;;;;;;;;;5063422;28;20044;-73
2023/07/28 01:07:41;;;;;;;4.13;1.05;;;;;;;;;;5063276;28;20383;-73
2023/07/28 01:10:13;;;;;;;;;;;;;;;;;;5063444;28;20080;-74
2023/07/28 01:12:43;;;;;;;1.20;1.02;;;;;;;;;;5063541;28;19924;-71
2023/07/28 01:15:17;;;;;;;2.10;0.88;;;;;;;;;;5065165;28;20055;-74
2023/07/28 01:17:48;;;;;;;1.70;1.00;;;;;;;;;;5065235;28;20047;-74
2023/07/28 01:20:18;;;;;;;1.10;0.90;;;;;;;;;;5061990;28;20056;-73
2023/07/28 01:22:55;;;;;;;1.48;1.25;;;;;;;;;;5061284;28;20522;-73
2023/07/28 01:26:01;;;;;;;2.50;1.10;;;;;;;;;;5062540;28;20052;-74
2023/07/28 01:28:34;;;;;;;2.75;0.95;;;;;;;;;;5062567;28;20044;-73
2023/07/28 01:31:07;;;;;;;1.80;1.20;;;;;;;;;;5060265;28;20052;-74
2023/07/28 01:33:38;;;;;;;2.30;1.05;;;;;;;;;;5044649;28;20053;-73
2023/07/28 01:36:09;;;;;;;3.25;1.20;;;;;;;;;;5061395;28;20494;-73
2023/07/28 01:38:42;;;;;;;1.70;1.13;;;;;;;;;;5058919;28;20059;-73
2023/07/28 01:41:13;;;;;;;3.72;1.05;;;;;;;;;;5060060;28;20056;-73
2023/07/28 01:43:44;;;;;;;1.63;1.15;;;;;;;;;;5060915;28;20044;-74
2023/07/28 01:46:15;;;;;;;5.00;1.85;;;;;;;;;;5059528;28;20059;-74
2023/07/28 01:48:47;;;;;;;7.30;1.48;;;;;;;;;;5059663;28;20055;-73
2023/07/28 01:51:17;;;;;;;15.90;1.65;;;;;;;;;;5061249;28;20079;-73
2023/07/28 01:53:47;;;;;;;3.03;1.15;;;;;;;;;;5061271;28;20103;-74
2023/07/28 01:56:17;;;;;;;3.03;1.90;;;;;;;;;;5061312;28;20055;-73
2023/07/28 01:58:48;;;;;;;5.65;2.22;;;;;;;;;;5059871;28;20040;-74
2023/07/28 02:01:18;;;;;;;3.65;1.13;;;;;;;;;;5059305;28;20353;-73
2023/07/28 02:03:49;;;;;;;1.92;1.08;;;;;;;;;;5060405;28;20594;-73
2023/07/28 02:06:19;;;;;;;4.05;1.58;;;;;;;;;;5060893;28;20052;-73
2023/07/28 02:08:50;;;;;;;3.03;1.55;;;;;;;;;;5060816;28;20061;-74
2023/07/28 02:11:21;;;;;;;4.95;2.10;;;;;;;;;;5060831;28;20060;-73
2023/07/28 02:13:52;;;;;;;12.20;5.00;;;;;;;;;;5059992;28;20059;-74
2023/07/28 02:16:22;;;;;;;14.80;5.60;;;;;;;;;;5058852;28;20590;-74
2023/07/28 02:18:53;;;;;;;4.90;2.08;;;;;;;;;;5060627;28;20056;-74
2023/07/28 02:21:24;;;;;;;3.85;1.98;;;;;;;;;;5059289;28;20067;-74
2023/07/28 02:23:53;;;;;;;3.13;1.80;;;;;;;;;;5061128;28;20044;-75
2023/07/28 02:26:24;;;;;;;4.95;1.58;;;;;;;;;;5061336;28;20079;-74
2023/07/28 02:28:54;;;;;;;1.63;1.02;;;;;;;;;;5060442;28;20047;-74
2023/07/28 02:31:26;;;;;;;3.92;1.63;;;;;;;;;;5060550;28;20040;-74
2023/07/28 02:33:57;;;;;;;2.05;1.15;;;;;;;;;;5060748;28;20052;-74
2023/07/28 02:36:27;;;;;;;5.22;1.25;;;;;;;;;;5059060;28;20052;-75
2023/07/28 02:38:57;;;;;;;3.38;1.17;;;;;;;;;;5059110;28;20060;-75
2023/07/28 02:41:27;;;;;;;2.30;1.30;;;;;;;;;;5060530;28;20045;-75
2023/07/28 02:43:59;;;;;;;2.97;1.13;;;;;;;;;;5060106;28;20052;-75
2023/07/28 02:46:29;;;;;;;3.97;2.25;;;;;;;;;;5060577;28;20086;-75
2023/07/28 02:49:03;;;;;;;1.67;1.00;;;;;;;;;;5060655;28;20044;-75
2023/07/28 02:51:34;;;;;;;1.13;0.93;;;;;;;;;;5061708;28;20052;-75
2023/07/28 02:54:05;;;;;;;3.08;1.20;;;;;;;;;;5060598;28;20074;-76
2023/07/28 02:56:38;;;;;;;1.70;0.98;;;;;;;;;;5058825;28;20503;-75
2023/07/28 02:59:15;;;;;;;2.85;0.90;;;;;;;;;;5060808;28;20052;-75
2023/07/28 03:01:46;;;;;;;2.40;1.10;;;;;;;;;;5057898;28;20055;-75
2023/07/28 03:04:19;;;;;;;5.47;1.02;;;;;;;;;;5059074;28;20048;-76
2023/07/28 03:07:23;;;;;;;2.67;1.00;;;;;;;;;;5047529;28;20098;-75
2023/07/28 03:09:59;;;;;;;2.30;0.90;;;;;;;;;;5058303;28;20052;-75
2023/07/28 03:12:31;;;;;;;2.75;1.15;;;;;;;;;;5058133;28;20048;-75
2023/07/28 03:15:02;;;;;;;3.53;1.20;;;;;;;;;;5059548;28;20048;-75
2023/07/28 03:17:33;;;;;;;0.70;0.70;;;;;;;;;;5057870;28;20056;-75
2023/07/28 03:20:06;;;;;;;2.25;1.00;;;;;;;;;;5057573;28;20423;-75
2023/07/28 03:22:36;;;;;;;4.10;1.15;;;;;;;;;;5058192;28;20060;-75
2023/07/28 03:25:06;;;;;;;3.65;1.27;;;;;;;;;;5058935;28;20059;-75
2023/07/28 03:27:37;;;;;;;5.68;1.70;;;;;;;;;;5058054;28;20427;-75
2023/07/28 03:30:11;;;;;;;5.80;1.60;;;;;;;;;;5059972;28;20051;-75
2023/07/28 03:32:42;;;;;;;2.13;1.00;;;;;;;;;;5058383;28;20075;-75
2023/07/28 03:35:14;;;;;;;2.10;1.13;;;;;;;;;;5058065;28;20057;-75
2023/07/28 03:37:50;;;;;;;7.57;1.40;;;;;;;;;;5057887;28;20056;-75
2023/07/28 03:40:21;;;;;;;2.45;1.27;;;;;;;;;;5058181;28;20049;-74
2023/07/28 03:42:54;;;;;;;1.35;1.00;;;;;;;;;;5058034;28;20506;-75
2023/07/28 03:45:25;;;;;;;5.35;1.20;;;;;;;;;;5059548;28;20502;-75
2023/07/28 03:47:55;;;;;;;3.28;1.13;;;;;;;;;;5059439;28;20058;-75
2023/07/28 03:50:27;;;;;;;2.05;1.00;;;;;;;;;;5058865;28;20164;-75
2023/07/28 03:52:59;;;;;;;4.32;1.10;;;;;;;;;;5058698;28;20511;-76
2023/07/28 03:55:30;;;;;;;1.42;1.13;;;;;;;;;;5060481;28;20049;-75
2023/07/28 03:57:59;;;;;;;2.13;0.95;;;;;;;;;;5059458;28;20422;-76
2023/07/28 04:00:31;;;;;;;4.45;1.08;;;;;;;;;;5060220;28;20434;-75
2023/07/28 04:03:01;;;;;;;1.67;1.10;;;;;;;;;;5061388;28;20052;-75
2023/07/28 04:05:31;;;;;;;3.50;1.10;;;;;;;;;;5062672;28;20052;-75
2023/07/28 04:08:02;;;;;;;7.07;2.45;;;;;;;;;;5063560;28;20053;-75
2023/07/28 04:10:33;;;;;;;8.02;2.47;;;;;;;;;;5063276;28;20063;-76
2023/07/28 04:13:03;;;;;;;11.10;1.90;;;;;;;;;;5061868;28;20075;-75
2023/07/28 04:15:33;;;;;;;7.85;2.55;;;;;;;;;;5063499;28;20056;-76
2023/07/28 04:18:04;;;;;;;7.00;1.90;;;;;;;;;;5061494;28;20060;-76
2023/07/28 04:20:34;;;;;;;2.85;1.70;;;;;;;;;;5063594;28;20056;-75
2023/07/28 04:23:05;;;;;;;4.63;1.40;;;;;;;;;;5063181;28;20056;-75
2023/07/28 04:25:38;;;;;;;3.33;1.10;;;;;;;;;;5061174;28;20419;-75
2023/07/28 04:28:09;;;;;;;5.28;1.48;;;;;;;;;;5063153;28;20078;-75
2023/07/28 04:30:39;;;;;;;2.85;1.52;;;;;;;;;;5061305;28;20059;-76
2023/07/28 04:33:19;;;;;;;4.53;1.10;;;;;;;;;;5061338;28;20052;-76
2023/07/28 04:35:51;;;;;;;10.50;5.18;;;;;;;;;;5061557;28;20044;-76
2023/07/28 04:38:33;;;;;;;10.90;3.28;;;;;;;;;;5060816;28;20624;-76
2023/07/28 04:41:03;;;;;;;4.47;2.40;;;;;;;;;;5061211;28;20062;-76
2023/07/28 04:43:53;;;;;;;3.40;1.98;;;;;;;;;;5061519;28;20048;-75
2023/07/28 04:46:26;;;;;;;3.78;2.25;;;;;;;;;;5060796;28;20045;-76
2023/07/28 04:48:58;;;;;;;6.43;1.73;;;;;;;;;;5061020;28;20049;-76
2023/07/28 04:51:46;;;;;;;5.32;2.60;;;;;;;;;;5066951;28;20052;-75
2023/07/28 04:54:42;;;;;;;5.22;1.50;;;;;;;;;;5061226;28;20075;-75
2023/07/28 04:57:14;;;;;;;3.30;1.33;;;;;;;;;;5062817;28;20052;-74
2023/07/28 04:59:45;;;;;;;5.15;1.65;;;;;;;;;;5061436;28;20057;-75
2023/07/28 05:02:15;;;;;;;2.47;1.52;;;;;;;;;;5062518;28;20054;-75
2023/07/28 05:04:45;;;;;;;3.30;1.38;;;;;;;;;;5060718;28;20637;-76
2023/07/28 05:07:17;;;;;;;5.65;1.85;;;;;;;;;;5060736;28;20435;-75
2023/07/28 05:09:49;;;;;;;6.88;1.80;;;;;;;;;;5065163;28;20051;-75
2023/07/28 05:12:20;;;;;;;4.30;1.30;;;;;;;;;;5063628;28;20049;-75
2023/07/28 05:14:51;;;;;;;3.25;1.23;;;;;;;;;;5063925;28;21155;-75
2023/07/28 05:17:22;;;;;;;3.08;1.20;;;;;;;;;;5063080;28;20530;-75
2023/07/28 05:20:07;;;;;;;4.68;1.20;;;;;;;;;;5063267;28;20063;-76
2023/07/28 05:23:03;;;;;;;5.75;1.20;;;;;;;;;;5063443;28;20049;-76
2023/07/28 05:25:34;;;;;;;1.80;1.35;;;;;;;;;;5064860;28;20049;-74
2023/07/28 05:28:05;;;;;;;2.25;1.30;;;;;;;;;;5063702;28;20079;-74
2023/07/28 05:30:39;;;;;;;3.25;1.42;;;;;;;;;;5062977;28;20063;-75
2023/07/28 05:33:09;;;;;;;3.10;1.60;;;;;;;;;;5063759;28;20060;-75
2023/07/28 05:35:58;;;;;;;3.75;1.42;;;;;;;;;;5064992;28;20045;-75
2023/07/28 05:38:32;;;;;;;3.80;1.60;;;;;;;;;;5063354;28;20045;-75
2023/07/28 05:41:04;;;;;;;4.60;1.40;;;;;;;;;;5064638;28;20049;-75
2023/07/28 05:43:34;;;;;;;5.60;1.42;;;;;;;;;;5062685;28;20061;-75
2023/07/28 05:46:05;;;;;;;1.75;1.42;;;;;;;;;;5063356;28;20059;-76
2023/07/28 05:48:37;;;;;;;3.30;1.52;;;;;;;;;;5062975;28;20060;-75
2023/07/28 05:51:08;;;;;;;3.67;1.40;;;;;;;;;;5064644;28;20045;-76
2023/07/28 05:53:38;;;;;;;3.25;1.50;;;;;;;;;;5063533;28;20044;-75
2023/07/28 05:56:09;;;;;;;3.58;1.15;;;;;;;;;;5063191;28;20127;-75
2023/07/28 05:58:40;;;;;;;3.28;1.40;;;;;;;;;;5064382;28;20051;-75
2023/07/28 06:01:12;;;;;;;3.08;1.13;;;;;;;;;;5062266;28;20053;-76
2023/07/28 06:04:01;;;;;;;3.22;1.23;;;;;;;;;;5064425;28;20052;-75
2023/07/28 06:06:35;;;;;;;3.28;1.33;;;;;;;;;;5063003;28;20538;-75
2023/07/28 06:09:06;;;;;;;3.67;1.58;;;;;;;;;;5062352;28;20052;-75
2023/07/28 06:11:36;;;;;;;3.78;1.50;;;;;;;;;;5062202;28;20059;-75
2023/07/28 06:14:07;;;;;;;3.35;1.27;;;;;;;;;;5062336;28;20048;-75
2023/07/28 06:16:38;;;;;;;3.75;1.63;;;;;;;;;;5061427;28;20053;-75
2023/07/28 06:19:09;;;;;;;4.32;1.67;;;;;;;;;;5062884;28;20419;-75
2023/07/28 06:21:42;;;;;;;4.32;1.80;;;;;;;;;;5062936;28;20530;-75
2023/07/28 06:24:13;;;;;;;2.85;1.63;;;;;;;;;;5064054;28;20052;-75
2023/07/28 06:26:44;;;;;;;6.88;2.05;;;;;;;;;;5061196;28;20056;-75
2023/07/28 06:29:15;;;;;;;4.90;1.52;;;;;;;;;;5061977;28;20549;-76
2023/07/28 06:31:46;;;;;;;9.50;1.55;;;;;;;;;;5062244;28;20044;-75
2023/07/28 06:34:16;;;;;;;5.30;1.58;;;;;;;;;;5064041;28;20051;-75
2023/07/28 06:36:47;;;;;;;6.85;1.40;;;;;;;;;;5063547;28;20533;-75
2023/07/28 06:39:18;;;;;;;6.35;1.70;;;;;;;;;;5063655;28;20048;-76
2023/07/28 06:41:50;;;;;;;2.17;1.60;;;;;;;;;;5062104;28;20048;-76
2023/07/28 06:44:22;;;;;;;3.65;1.75;;;;;;;;;;5062160;28;20064;-76
2023/07/28 06:46:52;;;;;;;4.18;1.50;;;;;;;;;;5063879;28;20044;-76
2023/07/28 06:49:23;;;;;;;3.90;1.80;;;;;;;;;;5061751;28;20045;-75
2023/07/28 06:51:54;;;;;;;1.88;1.25;;;;;;;;;;5060970;28;20055;-75
2023/07/28 06:54:24;;;;;;;1.83;1.10;;;;;;;;;;5062203;28;20060;-76
2023/07/28 06:56:54;;;;;;;1.95;1.23;;;;;;;;;;5063049;28;20052;-76
2023/07/28 06:59:25;;;;;;;3.95;1.90;;;;;;;;;;5063199;28;20045;-75
2023/07/28 07:01:56;;;;;;;1.80;1.27;;;;;;;;;;5063019;28;20423;-75
2023/07/28 07:04:27;;;;;;;3.05;1.42;;;;;;;;;;5063397;28;20056;-75
2023/07/28 07:06:58;;;;;;;2.25;1.30;;;;;;;;;;5064114;28;20051;-76
2023/07/28 07:09:30;;;;;;;1.55;1.25;;;;;;;;;;5063037;28;20550;-76
2023/07/28 07:12:01;;;;;;;1.50;0.95;;;;;;;;;;5062664;28;20049;-76
2023/07/28 07:14:32;;;;;;;1.50;1.00;;;;;;;;;;5064529;28;20044;-76
2023/07/28 07:17:04;;;;;;;3.30;1.20;;;;;;;;;;5063946;28;20052;-76
2023/07/28 07:19:36;;;;;;;2.25;1.13;;;;;;;;;;5062251;28;20395;-76
2023/07/28 07:22:06;;;;;;;5.22;1.10;;;;;;;;;;5062040;28;20053;-76
2023/07/28 07:24:37;;;;;;;3.83;1.40;;;;;;;;;;5061698;28;20047;-76
2023/07/28 07:27:10;;;;;;;2.40;1.10;;;;;;;;;;5062656;28;20095;-75
2023/07/28 07:29:42;;;;;;;1.30;0.90;;;;;;;;;;5063301;28;20056;-76
2023/07/28 07:32:15;;;;;;;1.20;0.90;;;;;;;;;;5063679;28;20048;-76
2023/07/28 07:34:46;;;;;;;11.18;1.13;;;;;;;;;;5065856;28;20048;-76
2023/07/28 07:37:15;;;;;;;;;;;;;;;;;;5063920;28;20068;-76
2023/07/28 07:39:46;;;;;;;2.28;0.90;;;;;;;;;;5062853;28;19935;-76
2023/07/28 07:42:17;;;;;;;3.95;0.90;;;;;;;;;;5063184;28;20040;-75
2023/07/28 07:44:48;;;;;;;1.23;0.70;;;;;;;;;;5062491;28;20047;-76
2023/07/28 07:47:19;;;;;;;1.88;0.60;;;;;;;;;;5060807;28;20048;-75
2023/07/28 07:49:49;;;;;;;1.08;0.70;;;;;;;;;;5062244;28;20111;-76
2023/07/28 07:52:20;;;;;;;1.33;0.60;;;;;;;;;;5061755;28;20049;-75
2023/07/28 07:54:51;;;;;;;0.77;0.63;;;;;;;;;;5062247;28;20037;-75
2023/07/28 07:57:21;;;;;;;0.95;0.60;;;;;;;;;;5063929;28;20040;-77
2023/07/28 07:59:52;;;;;;;1.13;0.40;;;;;;;;;;5062956;28;20048;-75
2023/07/28 08:02:22;;;;;;;0.82;0.60;;;;;;;;;;5061924;28;20508;-76
2023/07/28 08:04:54;;;;;;;3.38;0.50;;;;;;;;;;5062302;28;20041;-76
2023/07/28 08:07:25;;;;;;;3.38;0.52;;;;;;;;;;5062485;28;20044;-77
2023/07/28 08:09:54;;;;;;;;;;;;;;;;;;5062902;28;20621;-75
2023/07/28 08:12:26;;;;;;;1.73;0.40;;;;;;;;;;5062062;28;20097;-75
2023/07/28 08:14:57;;;;;;;9.20;0.60;;;;;;;;;;5062759;28;20049;-75
2023/07/28 08:17:28;;;;;;;0.30;0.30;;;;;;;;;;5062806;28;21120;-75
2023/07/28 08:19:57;;;;;;;;;;;;;;;;;;5062749;28;20057;-78
2023/07/28 08:22:27;;;;;;;1.17;0.38;;;;;;;;;;5062032;28;19932;-76
2023/07/28 08:24:58;;;;;;;2.40;0.40;;;;;;;;;;5062024;28;20045;-75
2023/07/28 08:27:29;;;;;;;0.40;0.40;;;;;;;;;;5061806;28;20048;-75
2023/07/28 08:29:58;;;;;;;3.25;0.30;;;;;;;;;;5060315;28;20055;-75
2023/07/28 08:32:29;;;;;;;1.65;0.40;;;;;;;;;;5062513;28;20389;-76
2023/07/28 08:35:00;;;;;;;0.40;0.40;;;;;;;;;;5062014;28;20051;-75
2023/07/28 08:37:31;;;;;;;0.43;0.43;;;;;;;;;;5061746;28;20507;-75
2023/07/28 08:40:02;;;;;;;0.30;0.30;;;;;;;;;;5061913;28;21051;-75
2023/07/28 08:42:37;;;;;;;0.52;0.40;;;;;;;;;;5061901;28;20041;-74
2023/07/28 08:45:08;;;;;;;0.73;0.60;;;;;;;;;;5060811;28;20427;-75
2023/07/28 08:47:40;;;;;;;1.67;0.43;;;;;;;;;;5062089;28;20052;-75
2023/07/28 08:50:11;;;;;;;0.63;0.40;;;;;;;;;;5063091;28;20052;-75
2023/07/28 08:52:41;;;;;;;0.50;0.50;;;;;;;;;;5065139;28;20036;-75
2023/07/28 08:55:13;;;;;;;0.45;0.45;;;;;;;;;;5063791;28;20048;-75
2023/07/28 08:57:44;;;;;;;0.40;0.40;;;;;;;;;;5064710;28;20056;-76
2023/07/28 09:00:17;;;;;;;0.75;0.50;;;;;;;;;;5065327;28;20419;-76
2023/07/28 09:02:50;;;;;;;0.95;0.70;;;;;;;;;;5065385;28;20479;-75
2023/07/28 09:05:23;;;;;;;0.60;0.60;;;;;;;;;;5064689;28;20052;-76
2023/07/28 09:07:55;;;;;;;1.10;0.65;;;;;;;;;;5065144;28;20107;-75
2023/07/28 09:10:44;;;;;;;0.60;0.60;;;;;;;;;;5064640;28;20055;-75
2023/07/28 09:13:17;;;;;;;2.50;0.90;;;;;;;;;;5065539;28;20087;-75
2023/07/28 09:15:49;;;;;;;1.40;0.80;;;;;;;;;;5064846;28;20422;-76
2023/07/28 09:18:27;;;;;;;1.00;0.90;;;;;;;;;;5064978;28;20044;-76
2023/07/28 09:20:58;;;;;;;3.25;1.00;;;;;;;;;;5064556;28;20068;-76
2023/07/28 09:23:32;;;;;;;2.22;1.05;;;;;;;;;;5065264;28;20063;-76
2023/07/28 09:26:03;;;;;;;1.92;0.98;;;;;;;;;;5064365;28;20410;-76
2023/07/28 09:28:41;;;;;;;3.90;1.10;;;;;;;;;;5065133;28;20064;-76
2023/07/28 09:31:11;;;;;;;4.28;1.40;;;;;;;;;;5065011;28;20055;-76
2023/07/28 09:33:46;;;;;;;4.35;1.02;;;;;;;;;;5064833;28;20071;-76
2023/07/28 09:36:17;;;;;;;1.48;1.10;;;;;;;;;;5064801;28;20068;-76
2023/07/28 09:38:49;;;;;;;1.65;1.00;;;;;;;;;;5064710;28;20083;-75
2023/07/28 09:41:21;;;;;;;3.72;0.93;;;;;;;;;;5064514;28;20044;-76
2023/07/28 09:43:52;;;;;;;3.80;1.40;;;;;;;;;;5064818;28;20106;-76
2023/07/28 09:46:28;;;;;;;2.15;1.35;;;;;;;;;;5064191;28;20055;-75
2023/07/28 09:49:01;;;;;;;7.82;1.40;;;;;;;;;;5064100;28;20083;-76
2023/07/28 09:51:36;;;;;;;4.05;1.30;;;;;;;;;;5064161;28;20048;-76
2023/07/28 09:54:13;;;;;;;5.43;1.73;;;;;;;;;;5064835;28;20055;-75
2023/07/28 09:56:46;;;;;;;3.42;1.48;;;;;;;;;;5063781;28;20040;-76
2023/07/28 09:59:18;;;;;;;2.92;1.33;;;;;;;;;;5063908;28;20048;-75
2023/07/28 10:01:49;;;;;;;3.65;1.30;;;;;;;;;;5063445;28;20052;-75
2023/07/28 10:04:20;;;;;;;3.08;1.38;;;;;;;;;;5064540;28;20110;-76
2023/07/28 10:06:56;;;;;;;2.25;1.23;;;;;;;;;;5064099;28;20048;-76
2023/07/28 10:09:30;;;;;;;4.15;1.15;;;;;;;;;;5064593;28;20419;-74
2023/07/28 10:12:03;;;;;;;1.20;1.10;;;;;;;;;;5064447;28;20049;-75
2023/07/28 10:14:37;;;;;;;6.53;1.33;;;;;;;;;;5064266;28;20492;-75
2023/07/28 10:17:17;;;;;;;3.13;1.20;;;;;;;;;;5061889;28;20064;-75
2023/07/28 10:19:47;;;;;;;5.80;1.17;;;;;;;;;;5063325;28;20061;-75
2023/07/28 10:22:19;;;;;;;4.05;1.45;;;;;;;;;;5063178;28;20048;-75
2023/07/28 10:25:00;;;;;;;2.10;1.10;;;;;;;;;;5063276;28;20048;-76
2023/07/28 10:27:46;;;;;;;3.65;1.02;;;;;;;;;;5063627;28;20053;-75
2023/07/28 10:30:19;;;;;;;4.50;1.75;;;;;;;;;;5061450;28;20531;-75
2023/07/28 10:32:50;;;;;;;6.57;1.70;;;;;;;;;;5062844;28;20048;-75
2023/07/28 10:35:26;;;;;;;3.42;1.23;;;;;;;;;;5063690;28;21139;-75
2023/07/28 10:37:58;;;;;;;2.08;1.40;;;;;;;;;;5063185;28;20049;-75
2023/07/28 10:40:38;;;;;;;6.57;1.60;;;;;;;;;;5063952;28;20123;-76
2023/07/28 10:43:09;;;;;;;3.10;1.50;;;;;;;;;;5062823;28;20037;-75
2023/07/28 10:45:40;;;;;;;4.70;1.80;;;;;;;;;;5063622;28;20052;-75
2023/07/28 10:48:13;;;;;;;3.70;1.17;;;;;;;;;;5061652;28;20052;-75
2023/07/28 10:50:44;;;;;;;4.15;1.45;;;;;;;;;;5061289;28;20064;-76
2023/07/28 10:53:16;;;;;;;3.00;1.40;;;;;;;;;;5064036;28;20052;-76
2023/07/28 10:55:47;;;;;;;3.70;1.55;;;;;;;;;;5062807;28;20052;-76
2023/07/28 10:58:17;;;;;;;5.72;1.67;;;;;;;;;;5063324;28;20044;-75
2023/07/28 11:00:48;;;;;;;3.20;1.50;;;;;;;;;;5063046;28;20428;-76
2023/07/28 11:03:20;;;;;;;3.58;1.40;;;;;;;;;;5063470;28;20049;-75
2023/07/28 11:05:51;;;;;;;4.00;1.67;;;;;;;;;;5062581;28;20514;-75
2023/07/28 11:08:23;;;;;;;2.83;1.38;;;;;;;;;;5062706;28;20048;-74
2023/07/28 11:10:55;;;;;;;3.08;1.52;;;;;;;;;;5062502;28;20052;-76
2023/07/28 11:13:28;;;;;;;4.10;1.98;;;;;;;;;;5062989;28;20048;-75
2023/07/28 11:16:10;;;;;;;2.83;1.30;;;;;;;;;;5063186;28;20051;-75
2023/07/28 11:18:40;;;;;;;3.42;1.25;;;;;;;;;;5062512;28;20052;-75
2023/07/28 11:21:11;;;;;;;6.05;1.35;;;;;;;;;;5062660;28;20052;-75
2023/07/28 11:23:45;;;;;;;3.10;1.30;;;;;;;;;;5062549;28;20056;-75
2023/07/28 11:26:17;;;;;;;4.38;1.30;;;;;;;;;;5062519;28;20041;-75
2023/07/28 11:28:47;;;;;;;4.13;1.45;;;;;;;;;;5063008;28;20055;-75
2023/07/28 11:31:25;;;;;;;1.75;1.00;;;;;;;;;;5061628;28;20045;-74
2023/07/28 11:33:56;;;;;;;1.73;1.15;;;;;;;;;;5060951;28;20048;-75
2023/07/28 11:36:31;;;;;;;7.90;1.33;;;;;;;;;;5061435;28;20040;-75
2023/07/28 11:39:05;;;;;;;9.27;1.65;;;;;;;;;;5061763;28;20050;-74
2023/07/28 11:41:36;;;;;;;2.75;1.38;;;;;;;;;;5061167;28;20052;-75
2023/07/28 11:44:07;;;;;;;3.17;1.27;;;;;;;;;;5061260;28;20044;-75
2023/07/28 11:46:40;;;;;;;2.65;1.52;;;;;;;;;;5061788;28;20040;-75
2023/07/28 11:49:24;;;;;;;1.55;1.40;;;;;;;;;;5062226;28;20547;-75
2023/07/28 11:51:58;;;;;;;3.80;1.17;;;;;;;;;;5062171;28;20407;-76
2023/07/28 11:54:30;;;;;;;1.58;1.10;;;;;;;;;;5062484;28;20052;-75
2023/07/28 11:57:01;;;;;;;2.97;1.30;;;;;;;;;;5060806;28;20801;-75
2023/07/28 11:59:32;;;;;;;4.18;1.35;;;;;;;;;;5062356;28;20048;-75
2023/07/28 12:02:05;;;;;;;3.67;1.27;;;;;;;;;;5062311;28;20060;-75
2023/07/28 12:04:40;;;;;;;4.85;1.40;;;;;;;;;;5062323;28;20056;-76
2023/07/28 12:07:16;;;;;;;2.63;1.30;;;;;;;;;;5063090;28;20059;-75
2023/07/28 12:09:52;;;;;;;3.15;1.33;;;;;;;;;;5063388;28;20040;-75
2023/07/28 12:12:30;;;;;;;3.85;1.30;;;;;;;;;;5061705;28;20051;-76
2023/07/28 12:15:22;;;;;;;5.20;1.27;;;;;;;;;;5062311;28;20051;-75
2023/07/28 12:18:14;;;;;;;3.92;1.92;;;;;;;;;;5061777;28;20118;-75
2023/07/28 12:20:49;;;;;;;3.95;1.50;;;;;;;;;;5061630;28;20617;-75
2023/07/28 12:23:22;;;;;;;3.13;1.48;;;;;;;;;;5062865;28;20694;-75
2023/07/28 12:25:55;;;;;;;5.72;1.50;;;;;;;;;;5065479;28;20041;-75
2023/07/28 12:28:25;;;;;;;6.38;1.70;;;;;;;;;;5065638;28;20049;-75
2023/07/28 12:30:58;;;;;;;4.90;1.67;;;;;;;;;;5065998;28;20075;-75
2023/07/28 12:33:30;;;;;;;3.85;1.60;;;;;;;;;;5065870;28;20044;-75
2023/07/28 12:36:05;;;;;;;2.42;1.40;;;;;;;;;;5066966;28;20041;-75
2023/07/28 12:38:39;;;;;;;5.47;1.70;;;;;;;;;;5065891;28;20052;-76
2023/07/28 12:41:11;;;;;;;3.10;1.50;;;;;;;;;;5065580;28;20049;-76
2023/07/28 12:43:50;;;;;;;5.93;2.17;;;;;;;;;;5066067;28;20412;-76
2023/07/28 12:46:24;;;;;;;2.85;1.52;;;;;;;;;;5064886;28;20638;-79
2023/07/28 12:48:55;;;;;;;3.95;1.83;;;;;;;;;;5065721;28;20051;-75
2023/07/28 12:51:27;;;;;;;4.20;1.60;;;;;;;;;;5065550;28;20052;-75
2023/07/28 12:54:00;;;;;;;3.92;2.17;;;;;;;;;;5065541;28;20075;-75
2023/07/28 12:56:34;;;;;;;3.05;1.90;;;;;;;;;;5065178;28;20375;-76
2023/07/28 12:59:09;;;;;;;5.28;2.13;;;;;;;;;;5065256;28;20041;-75
2023/07/28 13:01:42;;;;;;;8.32;2.40;;;;;;;;;;5064965;28;20499;-75
2023/07/28 13:04:12;;;;;;;6.55;1.98;;;;;;;;;;5065969;28;20052;-74
2023/07/28 13:06:44;;;;;;;3.10;1.95;;;;;;;;;;5065651;28;20059;-75
2023/07/28 13:09:16;;;;;;;6.80;1.70;;;;;;;;;;5064977;28;20056;-75
2023/07/28 13:11:49;;;;;;;2.65;1.38;;;;;;;;;;5064807;28;20406;-74
2023/07/28 13:14:22;;;;;;;5.25;1.60;;;;;;;;;;5065153;28;20625;-75
2023/07/28 13:16:54;;;;;;;9.02;1.70;;;;;;;;;;5064862;28;20076;-74
2023/07/28 13:19:24;;;;;;;4.30;1.55;;;;;;;;;;5065113;28;20507;-75
2023/07/28 13:21:54;;;;;;;3.40;1.80;;;;;;;;;;5064742;28;20483;-75
2023/07/28 13:24:24;;;;;;;3.25;1.70;;;;;;;;;;5064765;28;20056;-74
2023/07/28 13:26:54;;;;;;;4.25;1.40;;;;;;;;;;5064791;28;20048;-75
2023/07/28 13:29:26;;;;;;;4.13;1.67;;;;;;;;;;5064863;28;20063;-75
2023/07/28 13:32:00;;;;;;;6.05;1.55;;;;;;;;;;5064379;28;20055;-75
2023/07/28 13:34:31;;;;;;;3.25;1.50;;;;;;;;;;5064618;28;20051;-76
2023/07/28 13:37:03;;;;;;;2.47;1.13;;;;;;;;;;5063835;28;20052;-75
2023/07/28 13:39:35;;;;;;;2.50;1.40;;;;;;;;;;5064535;28;20419;-75
2023/07/28 13:42:05;;;;;;;1.60;0.98;;;;;;;;;;5064449;28;20048;-75
2023/07/28 13:44:37;;;;;;;3.60;1.23;;;;;;;;;;5064348;28;20053;-75
2023/07/28 13:47:15;;;;;;;2.95;1.00;;;;;;;;;;5064552;28;20047;-75
2023/07/28 13:49:47;;;;;;;2.10;1.23;;;;;;;;;;5064045;28;20049;-75
2023/07/28 13:52:20;;;;;;;2.78;1.23;;;;;;;;;;5063875;28;20048;-75
2023/07/28 13:54:50;;;;;;;2.70;1.13;;;;;;;;;;5064510;28;20079;-75
2023/07/28 13:57:24;;;;;;;2.22;1.10;;;;;;;;;;5064835;28;20056;-75
2023/07/28 13:59:56;;;;;;;1.42;0.98;;;;;;;;;;5063848;28;20045;-75
2023/07/28 14:02:26;;;;;;;1.65;1.05;;;;;;;;;;5064277;28;20537;-75
2023/07/28 14:04:56;;;;;;;2.00;1.00;;;;;;;;;;5063713;28;20049;-74
2023/07/28 14:07:28;;;;;;;1.98;1.00;;;;;;;;;;5063486;28;20542;-74
2023/07/28 14:09:59;;;;;;;3.35;1.02;;;;;;;;;;5063539;28;20048;-75
2023/07/28 14:12:29;;;;;;;2.30;1.00;;;;;;;;;;5062278;28;20405;-74
2023/07/28 14:15:00;;;;;;;8.27;1.27;;;;;;;;;;5064007;28;20061;-74
2023/07/28 14:17:30;;;;;;;2.13;0.95;;;;;;;;;;5063882;28;20044;-74
2023/07/28 14:20:02;;;;;;;5.70;1.35;;;;;;;;;;5063141;28;20063;-78
2023/07/28 14:22:33;;;;;;;3.15;1.10;;;;;;;;;;5063451;28;20044;-75
2023/07/28 14:25:04;;;;;;;3.30;1.10;;;;;;;;;;5063870;28;20055;-74
2023/07/28 14:27:35;;;;;;;1.17;0.90;;;;;;;;;;5063976;28;20056;-74
2023/07/28 14:30:08;;;;;;;2.00;0.90;;;;;;;;;;5064218;28;20399;-74
2023/07/28 14:32:38;;;;;;;1.92;1.20;;;;;;;;;;5062426;28;20056;-74
2023/07/28 14:35:09;;;;;;;2.70;1.10;;;;;;;;;;5063191;28;20492;-74
2023/07/28 14:37:40;;;;;;;2.38;1.00;;;;;;;;;;5063118;28;20423;-75
2023/07/28 14:40:12;;;;;;;3.80;1.10;;;;;;;;;;5063358;28;20732;-75
2023/07/28 14:42:42;;;;;;;4.43;1.30;;;;;;;;;;5063112;28;20040;-74
2023/07/28 14:45:12;;;;;;;3.28;1.00;;;;;;;;;;5063066;28;20041;-74
2023/07/28 14:47:42;;;;;;;2.10;0.95;;;;;;;;;;5061636;28;20056;-74
2023/07/28 14:50:12;;;;;;;3.58;1.15;;;;;;;;;;5063182;28;20048;-74
2023/07/28 14:52:44;;;;;;;4.10;1.30;;;;;;;;;;5062796;28;20056;-73
2023/07/28 14:55:14;;;;;;;1.95;0.93;;;;;;;;;;5062659;28;20055;-73
2023/07/28 14:57:44;;;;;;;3.15;1.17;;;;;;;;;;5063541;28;20040;-76
2023/07/28 15:00:15;;;;;;;4.25;1.25;;;;;;;;;;5063392;28;20044;-78
2023/07/28 15:02:45;;;;;;;1.08;0.70;;;;;;;;;;5063306;28;20517;-78
2023/07/28 15:05:17;;;;;;;2.33;0.88;;;;;;;;;;5063604;28;20411;-79
2023/07/28 15:07:48;;;;;;;1.20;0.70;;;;;;;;;;5063902;28;20052;-79
2023/07/28 15:10:18;;;;;;;3.53;0.80;;;;;;;;;;5064331;28;20427;-79
2023/07/28 15:12:48;;;;;;;2.47;0.95;;;;;;;;;;5064656;28;20056;-79
2023/07/28 15:15:19;;;;;;;3.40;1.10;;;;;;;;;;5064344;28;20047;-79